Time;durP1;ratioP1;P1;durP2;ratioP2;P2;SDS_P1;SDS_P2;PMS_P1;PMS_P2;Temp;Humidity;BMP_temperature;BMP_pressure;BME280_temperature;BME280_humidity;BME280_pressure;Samples;Min_cycle;Max_cycle;Signal;HPM_P1;HPM_P2
2022/05/05 00:01:32;;;;;;;40.47;25.17;;;12.40;99.90;;;;;;5051195;28;21038;-78
2022/05/05 00:04:00;;;;;;;33.13;23.70;;;12.50;99.90;;;;;;5051180;28;20459;-78
2022/05/05 00:06:27;;;;;;;41.83;25.20;;;12.50;99.90;;;;;;5047402;28;20473;-77
2022/05/05 00:08:55;;;;;;;36.77;25.00;;;12.50;99.90;;;;;;5031960;28;20457;-77
2022/05/05 00:14:24;;;;;;;38.80;24.77;;;12.50;99.90;;;;;;5043670;28;20422;-77
2022/05/05 00:16:51;;;;;;;35.23;24.50;;;12.50;99.90;;;;;;5031983;28;21008;-77
2022/05/05 00:19:19;;;;;;;38.47;24.30;;;12.50;99.90;;;;;;5048957;28;20448;-77
2022/05/05 00:21:45;;;;;;;39.10;25.43;;;12.40;99.90;;;;;;5050772;28;20522;-77
2022/05/05 00:24:12;;;;;;;38.53;25.93;;;12.40;99.90;;;;;;5033398;28;20487;-78
2022/05/05 00:26:39;;;;;;;41.13;25.80;;;12.40;99.90;;;;;;5036042;28;20506;-77
2022/05/05 00:29:06;;;;;;;38.07;24.80;;;12.40;99.90;;;;;;5046005;28;20499;-77
2022/05/05 00:31:33;;;;;;;36.70;25.17;;;12.40;99.90;;;;;;5030592;28;20520;-77
2022/05/05 00:33:59;;;;;;;39.00;25.50;;;12.30;99.90;;;;;;5030028;28;20569;-77
2022/05/05 00:36:27;;;;;;;37.53;24.67;;;12.30;99.90;;;;;;5039273;28;20495;-77
2022/05/05 00:38:54;;;;;;;39.13;25.20;;;12.30;99.90;;;;;;5030602;28;20453;-77
2022/05/05 00:41:22;;;;;;;34.93;24.37;;;12.30;99.90;;;;;;5038546;28;20545;-77
2022/05/05 00:43:49;;;;;;;37.57;23.80;;;12.20;99.90;;;;;;5043804;28;20450;-77
2022/05/05 00:46:15;;;;;;;39.37;24.20;;;12.20;99.90;;;;;;5039423;28;20457;-77
2022/05/05 00:48:43;;;;;;;36.90;24.80;;;12.20;99.90;;;;;;5050166;28;20509;-77
2022/05/05 00:51:11;;;;;;;38.77;25.17;;;12.20;99.90;;;;;;5049835;28;20508;-77
2022/05/05 00:53:39;;;;;;;38.13;24.77;;;12.20;99.90;;;;;;5031265;28;20457;-77
2022/05/05 00:56:08;;;;;;;39.10;24.17;;;12.10;99.90;;;;;;5038241;28;20956;-77
2022/05/05 00:58:35;;;;;;;38.03;23.73;;;12.10;99.90;;;;;;5049015;28;20449;-77
2022/05/05 01:01:04;;;;;;;36.20;25.03;;;12.10;99.90;;;;;;5049929;28;20527;-77
2022/05/05 01:03:33;;;;;;;36.17;24.37;;;12.10;99.90;;;;;;5032239;28;20463;-77
2022/05/05 01:06:00;;;;;;;44.20;23.70;;;12.10;99.90;;;;;;5037212;28;20495;-78
2022/05/05 01:08:27;;;;;;;38.63;24.30;;;12.10;99.90;;;;;;5049179;28;21029;-78
2022/05/05 01:10:55;;;;;;;37.73;24.23;;;12.10;99.90;;;;;;5049664;28;20522;-77
2022/05/05 01:13:22;;;;;;;37.03;24.53;;;12.10;99.90;;;;;;5047760;28;20464;-78
2022/05/05 01:15:50;;;;;;;36.47;23.23;;;12.10;99.90;;;;;;5044897;28;20885;-77
2022/05/05 01:18:16;;;;;;;34.53;24.90;;;12.10;99.90;;;;;;5037886;28;20539;-77
2022/05/05 01:20:47;;;;;;;45.53;26.07;;;12.10;99.90;;;;;;5049949;28;20468;-77
2022/05/05 01:23:16;;;;;;;36.73;25.20;;;12.10;99.90;;;;;;5047703;28;20971;-77
2022/05/05 01:28:31;;;;;;;39.97;25.33;;;12.00;99.90;;;;;;5020047;28;20550;-77
2022/05/05 01:30:58;;;;;;;33.37;23.17;;;12.10;99.90;;;;;;5030170;28;20473;-77
2022/05/05 01:33:27;;;;;;;36.90;22.17;;;12.10;99.90;;;;;;5033305;28;20467;-77
2022/05/05 01:35:56;;;;;;;37.33;23.83;;;12.00;99.90;;;;;;5034640;28;20479;-77
2022/05/05 01:38:25;;;;;;;38.50;23.40;;;12.00;99.90;;;;;;5049937;28;20456;-77
2022/05/05 01:40:52;;;;;;;34.17;22.57;;;12.00;99.90;;;;;;5034205;28;20815;-77
2022/05/05 01:43:21;;;;;;;35.07;21.90;;;12.00;99.90;;;;;;5048581;28;20449;-77
2022/05/05 01:45:48;;;;;;;35.20;21.90;;;12.00;99.90;;;;;;5049117;28;20461;-77
2022/05/05 01:48:14;;;;;;;37.87;23.50;;;12.00;99.90;;;;;;5050800;28;20480;-77
2022/05/05 01:50:41;;;;;;;30.30;22.27;;;12.00;99.90;;;;;;5042554;28;20543;-77
2022/05/05 01:53:08;;;;;;;34.27;22.90;;;12.00;99.90;;;;;;5033586;28;20930;-77
2022/05/05 01:55:36;;;;;;;30.33;21.90;;;11.90;99.90;;;;;;5042660;28;20459;-77
2022/05/05 01:58:04;;;;;;;28.37;21.10;;;11.90;99.90;;;;;;5032990;28;20450;-77
2022/05/05 02:00:31;;;;;;;35.67;20.93;;;11.90;99.90;;;;;;5032749;28;20473;-77
2022/05/05 02:02:58;;;;;;;34.20;21.13;;;11.90;99.90;;;;;;5033191;28;20476;-77
2022/05/05 02:05:25;;;;;;;28.30;20.77;;;11.90;99.90;;;;;;5033110;28;20449;-77
2022/05/05 02:07:52;;;;;;;29.57;20.20;;;11.80;99.90;;;;;;5053292;28;20559;-77
2022/05/05 02:10:20;;;;;;;34.37;20.73;;;11.80;99.90;;;;;;5037761;28;20473;-77
2022/05/05 02:12:51;;;;;;;28.30;20.40;;;11.80;99.90;;;;;;5033863;28;20469;-78
2022/05/05 02:15:17;;;;;;;32.00;19.80;;;11.80;99.90;;;;;;5032883;28;20457;-78
2022/05/05 02:17:45;;;;;;;31.07;20.57;;;11.80;99.90;;;;;;5051369;28;21023;-78
2022/05/05 02:20:13;;;;;;;37.00;21.40;;;11.80;99.90;;;;;;5053732;28;20464;-77
2022/05/05 02:22:40;;;;;;;35.93;21.87;;;11.80;99.90;;;;;;5046331;28;20874;-77
2022/05/05 02:25:08;;;;;;;33.53;21.77;;;11.80;99.90;;;;;;5036170;28;20458;-77
2022/05/05 02:27:51;;;;;;;35.83;21.90;;;11.80;99.90;;;;;;5041981;28;20523;-77
2022/05/05 02:30:19;;;;;;;30.20;22.50;;;11.80;99.90;;;;;;5048744;28;20461;-77
2022/05/05 02:32:45;;;;;;;32.20;20.70;;;11.80;99.90;;;;;;5033502;28;20445;-77
2022/05/05 02:35:12;;;;;;;30.77;21.80;;;11.80;99.90;;;;;;5034446;28;20792;-77
2022/05/05 02:40:23;;;;;;;26.20;20.70;;;11.80;99.90;;;;;;5033264;28;20495;-77
2022/05/05 02:42:52;;;;;;;31.30;21.73;;;11.80;99.90;;;;;;5044695;28;20448;-77
2022/05/05 02:45:19;;;;;;;29.00;21.07;;;11.70;99.90;;;;;;5046200;28;20484;-77
2022/05/05 02:47:47;;;;;;;31.83;20.80;;;11.80;99.90;;;;;;5033262;28;20534;-78
2022/05/05 02:50:14;;;;;;;29.13;19.97;;;11.80;99.90;;;;;;5032782;28;20477;-77
2022/05/05 02:52:40;;;;;;;33.17;20.40;;;11.80;99.90;;;;;;5050533;28;20510;-78
2022/05/05 02:55:07;;;;;;;28.63;19.37;;;11.80;99.90;;;;;;5046419;28;20452;-77
2022/05/05 02:57:34;;;;;;;29.93;19.50;;;11.80;99.90;;;;;;5033129;28;20497;-77
2022/05/05 03:00:04;;;;;;;29.67;20.00;;;11.80;99.90;;;;;;5052094;28;20460;-77
2022/05/05 03:02:31;;;;;;;31.23;19.60;;;11.80;99.90;;;;;;5035072;28;20901;-78
2022/05/05 03:04:58;;;;;;;28.57;19.90;;;11.80;99.90;;;;;;5030966;28;20453;-77
2022/05/05 03:07:25;;;;;;;32.67;20.03;;;11.80;99.90;;;;;;5050341;28;20476;-77
2022/05/05 03:09:52;;;;;;;29.77;18.93;;;11.80;99.90;;;;;;5051597;28;20498;-77
2022/05/05 03:12:18;;;;;;;32.53;21.20;;;11.80;99.90;;;;;;5048517;28;20468;-77
2022/05/05 03:14:46;;;;;;;31.87;21.07;;;11.80;99.90;;;;;;5033243;28;20526;-77
2022/05/05 03:17:14;;;;;;;31.50;19.23;;;11.80;99.90;;;;;;5050562;28;20531;-77
2022/05/05 03:19:41;;;;;;;31.13;19.10;;;11.80;99.90;;;;;;5043736;28;20970;-77
2022/05/05 03:22:08;;;;;;;31.97;19.30;;;11.80;99.90;;;;;;5051466;28;20534;-77
2022/05/05 03:24:35;;;;;;;24.43;17.00;;;11.80;99.90;;;;;;5043061;28;20457;-77
2022/05/05 03:27:02;;;;;;;23.63;16.63;;;11.80;99.90;;;;;;5031808;28;20828;-77
2022/05/05 03:29:28;;;;;;;27.10;18.10;;;11.80;99.90;;;;;;5034759;28;20537;-77
2022/05/05 03:31:55;;;;;;;24.20;18.07;;;11.80;99.90;;;;;;5034350;28;20473;-77
2022/05/05 03:34:23;;;;;;;28.30;17.70;;;11.80;99.90;;;;;;5042100;28;20956;-77
2022/05/05 03:36:50;;;;;;;31.43;17.90;;;11.80;99.90;;;;;;5051441;28;20965;-77
2022/05/05 03:39:16;;;;;;;24.70;17.70;;;11.80;99.90;;;;;;5050509;28;20503;-77
2022/05/05 03:41:43;;;;;;;27.73;16.23;;;11.80;99.90;;;;;;5049199;28;20472;-77
2022/05/05 03:44:10;;;;;;;31.60;15.87;;;11.90;99.90;;;;;;5046434;28;20488;-77
2022/05/05 03:46:36;;;;;;;24.30;16.03;;;11.80;99.90;;;;;;5037089;28;20507;-77
2022/05/05 03:49:03;;;;;;;21.70;14.77;;;11.80;99.90;;;;;;5034202;28;20485;-79
2022/05/05 03:51:31;;;;;;;24.53;14.33;;;11.80;99.90;;;;;;5053408;28;20477;-79
2022/05/05 03:53:58;;;;;;;18.07;13.80;;;11.80;99.90;;;;;;5019174;28;20503;-79
2022/05/05 03:56:24;;;;;;;29.00;13.57;;;11.80;99.90;;;;;;5052996;28;20522;-79
2022/05/05 03:58:51;;;;;;;18.30;12.20;;;11.80;99.90;;;;;;5045765;28;20445;-79
2022/05/05 04:01:17;;;;;;;16.57;12.70;;;11.80;99.90;;;;;;5034297;28;20481;-79
2022/05/05 04:03:44;;;;;;;20.57;12.20;;;11.80;99.90;;;;;;5050515;28;20889;-79
2022/05/05 04:06:11;;;;;;;23.73;11.27;;;11.90;99.90;;;;;;5053757;28;20457;-80
2022/05/05 04:08:40;;;;;;;17.57;11.30;;;11.90;99.90;;;;;;5053547;28;21038;-79
2022/05/05 04:11:07;;;;;;;19.40;12.00;;;11.90;99.90;;;;;;5034303;28;21083;-79
2022/05/05 04:13:34;;;;;;;21.83;11.30;;;11.90;99.90;;;;;;5043661;28;20865;-79
2022/05/05 04:16:01;;;;;;;20.17;11.87;;;11.90;99.90;;;;;;5054215;28;20506;-79
2022/05/05 04:18:28;;;;;;;20.67;11.60;;;11.90;99.90;;;;;;5051726;28;20510;-79
2022/05/05 04:20:54;;;;;;;17.87;11.77;;;11.90;99.90;;;;;;5034094;28;20891;-79
2022/05/05 04:23:21;;;;;;;16.07;11.50;;;11.90;99.90;;;;;;5040202;28;20453;-78
2022/05/05 04:25:50;;;;;;;17.10;11.70;;;11.80;99.90;;;;;;5033181;28;20449;-79
2022/05/05 04:28:17;;;;;;;23.17;11.80;;;11.80;99.90;;;;;;5032549;28;21071;-79
2022/05/05 04:30:44;;;;;;;19.30;11.60;;;11.80;99.90;;;;;;5043008;28;20485;-78
2022/05/05 04:33:12;;;;;;;18.37;11.93;;;11.80;99.90;;;;;;5031921;28;20449;-79
2022/05/05 04:35:39;;;;;;;20.87;12.87;;;11.80;99.90;;;;;;5031833;28;20460;-79
2022/05/05 04:38:06;;;;;;;18.67;12.67;;;11.80;99.90;;;;;;5032402;28;20465;-79
2022/05/05 04:40:33;;;;;;;22.30;13.30;;;11.80;99.90;;;;;;5048147;28;20478;-78
2022/05/05 04:43:01;;;;;;;18.37;12.60;;;11.80;99.90;;;;;;5032185;28;20634;-78
2022/05/05 04:45:27;;;;;;;16.27;12.70;;;11.80;99.90;;;;;;5032831;28;20988;-79
2022/05/05 04:47:55;;;;;;;25.40;12.33;;;11.80;99.90;;;;;;5029374;28;20550;-79
2022/05/05 04:50:22;;;;;;;21.30;12.53;;;11.80;99.90;;;;;;5029634;28;20849;-78
2022/05/05 04:52:48;;;;;;;17.93;11.87;;;11.80;99.90;;;;;;5031725;28;20461;-79
2022/05/05 04:55:15;;;;;;;20.33;12.07;;;11.90;99.90;;;;;;5036260;28;20460;-78
2022/05/05 04:57:42;;;;;;;14.70;11.40;;;11.90;99.90;;;;;;5047248;28;20478;-77
2022/05/05 05:00:11;;;;;;;23.27;12.30;;;11.90;99.90;;;;;;5050136;28;20480;-77
2022/05/05 05:02:37;;;;;;;20.50;11.90;;;11.90;99.90;;;;;;5050258;28;20452;-76
2022/05/05 05:05:05;;;;;;;25.43;12.80;;;12.00;99.90;;;;;;5049433;28;20449;-76
2022/05/05 05:07:31;;;;;;;25.33;11.93;;;12.00;99.90;;;;;;5039162;28;20483;-77
2022/05/05 05:09:58;;;;;;;21.70;12.47;;;12.10;99.90;;;;;;5035486;28;20457;-77
2022/05/05 05:12:25;;;;;;;18.40;12.23;;;12.10;99.90;;;;;;5043726;28;20844;-76
2022/05/05 05:14:51;;;;;;;17.63;11.67;;;12.10;99.90;;;;;;5033423;28;20965;-77
2022/05/05 05:17:19;;;;;;;19.23;12.57;;;12.20;99.90;;;;;;5030854;28;20454;-77
2022/05/05 05:19:46;;;;;;;22.13;12.73;;;12.20;99.90;;;;;;5052019;28;21018;-77
2022/05/05 05:22:13;;;;;;;22.20;12.30;;;12.20;99.90;;;;;;5034352;28;20499;-78
2022/05/05 05:24:39;;;;;;;23.33;12.80;;;12.20;99.90;;;;;;5041324;28;20503;-77
2022/05/05 05:27:06;;;;;;;20.20;13.33;;;12.30;99.90;;;;;;5043824;28;20449;-76
2022/05/05 05:29:33;;;;;;;25.37;13.97;;;12.30;99.90;;;;;;5033687;28;20542;-77
2022/05/05 05:32:00;;;;;;;23.70;15.73;;;12.30;99.90;;;;;;5041218;28;20539;-76
2022/05/05 05:34:28;;;;;;;22.30;12.77;;;12.30;99.90;;;;;;5036866;28;20448;-77
2022/05/05 05:36:54;;;;;;;27.70;15.03;;;12.40;99.90;;;;;;5053001;28;20460;-77
2022/05/05 05:39:21;;;;;;;23.43;13.60;;;12.40;99.90;;;;;;5053351;28;20456;-76
2022/05/05 05:41:48;;;;;;;19.50;14.60;;;12.50;99.90;;;;;;5053097;28;20867;-76
2022/05/05 05:44:14;;;;;;;21.10;12.93;;;12.60;99.90;;;;;;5053094;28;20456;-77
2022/05/05 05:46:41;;;;;;;21.83;13.23;;;12.70;99.90;;;;;;5035666;28;20453;-77
2022/05/05 05:49:09;;;;;;;25.43;13.73;;;12.80;99.90;;;;;;5033607;28;20912;-77
2022/05/05 05:51:37;;;;;;;20.27;13.10;;;12.80;99.90;;;;;;5033032;28;21067;-77
2022/05/05 05:54:04;;;;;;;24.20;13.73;;;12.90;99.90;;;;;;5045859;28;20522;-76
2022/05/05 05:56:31;;;;;;;17.50;12.80;;;12.90;99.90;;;;;;5051407;28;20486;-76
2022/05/05 05:59:01;;;;;;;15.43;12.93;;;12.90;99.90;;;;;;5053468;28;20452;-77
2022/05/05 06:04:10;;;;;;;18.87;12.83;;;13.00;99.90;;;;;;5037438;28;20453;-79
2022/05/05 06:06:38;;;;;;;19.37;12.27;;;13.00;99.90;;;;;;5037092;28;20448;-77
2022/05/05 06:09:05;;;;;;;18.70;12.00;;;13.10;99.90;;;;;;5043311;28;20480;-81
2022/05/05 06:11:32;;;;;;;17.37;12.20;;;13.00;99.90;;;;;;5057972;28;20551;-80
2022/05/05 06:13:58;;;;;;;22.57;13.00;;;13.10;99.90;;;;;;5041728;28;20453;-79
2022/05/05 06:16:27;;;;;;;17.60;11.93;;;13.20;99.90;;;;;;5035874;28;20504;-78
2022/05/05 06:18:54;;;;;;;20.93;12.73;;;13.20;99.90;;;;;;5037652;28;21009;-78
2022/05/05 06:21:20;;;;;;;25.80;13.70;;;13.20;99.90;;;;;;5056641;28;20461;-79
2022/05/05 06:23:48;;;;;;;20.37;13.03;;;13.30;99.90;;;;;;5053014;28;21000;-78
2022/05/05 06:26:15;;;;;;;21.57;12.53;;;13.30;99.90;;;;;;5035327;28;20496;-76
2022/05/05 06:28:43;;;;;;;20.60;13.67;;;13.30;99.90;;;;;;5036685;28;21310;-80
2022/05/05 06:31:11;;;;;;;25.30;14.47;;;13.30;99.90;;;;;;5037308;28;20485;-79
2022/05/05 06:33:38;;;;;;;16.33;12.67;;;13.30;99.90;;;;;;5038659;28;20453;-78
2022/05/05 06:36:05;;;;;;;27.07;12.70;;;13.40;99.90;;;;;;5038427;28;20457;-79
2022/05/05 06:38:32;;;;;;;20.97;13.10;;;13.40;99.90;;;;;;5038044;28;20803;-78
2022/05/05 06:41:00;;;;;;;19.50;13.57;;;13.50;99.90;;;;;;5040911;28;20473;-79
2022/05/05 06:43:27;;;;;;;23.30;13.37;;;13.50;99.90;;;;;;5037633;28;20461;-78
2022/05/05 06:45:54;;;;;;;18.80;12.70;;;13.60;99.90;;;;;;5038363;28;20473;-79
2022/05/05 06:48:21;;;;;;;20.77;13.43;;;13.60;99.90;;;;;;5038921;28;20481;-78
2022/05/05 06:50:48;;;;;;;19.80;12.30;;;13.60;99.90;;;;;;5038469;28;20473;-79
2022/05/05 06:53:14;;;;;;;23.83;13.83;;;13.60;99.90;;;;;;5036688;28;20515;-79
2022/05/05 06:55:41;;;;;;;23.43;13.77;;;13.60;99.90;;;;;;5032329;28;20503;-79
2022/05/05 06:58:09;;;;;;;20.40;13.63;;;13.50;99.90;;;;;;5034254;28;20453;-79
2022/05/05 07:03:20;;;;;;;24.10;13.67;;;13.50;99.90;;;;;;5034940;28;20537;-78
2022/05/05 07:05:46;;;;;;;26.03;13.80;;;13.50;99.90;;;;;;5034643;28;21019;-78
2022/05/05 07:08:12;;;;;;;23.20;13.10;;;13.60;99.90;;;;;;5036437;28;20441;-78
2022/05/05 07:10:53;;;;;;;25.97;13.17;;;13.60;99.90;;;;;;5035208;28;20292;-78
2022/05/05 07:13:22;;;;;;;21.37;12.80;;;13.60;99.90;;;;;;5034695;28;20461;-79
2022/05/05 07:15:49;;;;;;;21.30;12.20;;;13.70;99.90;;;;;;5038877;28;20449;-79
2022/05/05 07:18:16;;;;;;;24.33;12.30;;;13.80;99.90;;;;;;5033913;28;20851;-78
2022/05/05 07:20:43;;;;;;;23.50;12.80;;;13.80;99.90;;;;;;5033091;28;20476;-78
2022/05/05 07:23:13;;;;;;;23.77;12.20;;;13.80;99.90;;;;;;5032867;28;20962;-79
2022/05/05 07:25:41;;;;;;;18.80;12.57;;;13.90;99.90;;;;;;5048979;28;20488;-78
2022/05/05 07:28:08;;;;;;;17.97;12.53;;;13.90;99.90;;;;;;5033357;28;20445;-78
2022/05/05 07:30:37;;;;;;;20.37;12.83;;;14.10;99.90;;;;;;5033813;28;20473;-79
2022/05/05 07:33:04;;;;;;;22.90;12.87;;;14.10;99.90;;;;;;5034035;28;20945;-78
2022/05/05 07:35:31;;;;;;;20.70;11.47;;;14.10;99.90;;;;;;5038163;28;20458;-79
2022/05/05 07:37:58;;;;;;;19.33;11.70;;;14.20;99.90;;;;;;5036004;28;20756;-79
2022/05/05 07:40:25;;;;;;;20.80;11.90;;;14.20;99.90;;;;;;5035413;28;20452;-79
2022/05/05 07:42:51;;;;;;;17.43;12.03;;;14.20;99.90;;;;;;5033316;28;20453;-79
2022/05/05 07:45:18;;;;;;;16.43;12.27;;;14.30;99.90;;;;;;5033698;28;20458;-79
2022/05/05 07:47:46;;;;;;;19.43;11.87;;;14.30;99.90;;;;;;5034244;28;20449;-79
2022/05/05 07:50:13;;;;;;;19.27;12.30;;;14.30;99.90;;;;;;5033064;28;20518;-79
2022/05/05 07:52:40;;;;;;;21.10;13.20;;;14.30;99.90;;;;;;5035541;28;20449;-79
2022/05/05 07:55:08;;;;;;;23.50;13.63;;;14.40;99.90;;;;;;5035164;28;20454;-79
2022/05/05 07:57:43;;;;;;;22.30;12.50;;;14.50;99.90;;;;;;5033817;28;20453;-79
2022/05/05 08:00:11;;;;;;;20.90;13.60;;;14.50;99.90;;;;;;5034979;28;20520;-79
2022/05/05 08:02:38;;;;;;;28.67;12.53;;;14.60;99.90;;;;;;5035161;28;20452;-79
2022/05/05 08:05:09;;;;;;;20.77;12.70;;;14.70;99.90;;;;;;5031565;28;20511;-79
2022/05/05 08:07:36;;;;;;;23.70;12.70;;;14.80;99.90;;;;;;5032231;28;20823;-80
2022/05/05 08:10:03;;;;;;;22.73;11.83;;;14.90;99.90;;;;;;5034526;28;20491;-79
2022/05/05 08:12:30;;;;;;;18.00;12.10;;;15.00;99.90;;;;;;5042657;28;20597;-79
2022/05/05 08:14:57;;;;;;;18.00;11.33;;;15.10;99.90;;;;;;5042963;28;20457;-79
2022/05/05 08:17:24;;;;;;;19.40;12.57;;;15.30;99.90;;;;;;5047249;28;20460;-79
2022/05/05 08:19:50;;;;;;;24.27;14.10;;;15.40;99.90;;;;;;5056521;28;20859;-79
2022/05/05 08:22:18;;;;;;;26.43;13.90;;;15.50;99.90;;;;;;5055757;28;20523;-79
2022/05/05 08:30:13;;;;;;;19.90;11.73;;;15.90;99.90;;;;;;5049530;28;20496;-79
2022/05/05 08:32:40;;;;;;;18.30;10.83;;;16.00;99.90;;;;;;5036843;28;20480;-79
2022/05/05 08:35:07;;;;;;;22.20;11.87;;;16.00;99.90;;;;;;5035550;28;20842;-80
2022/05/05 08:37:35;;;;;;;19.93;11.03;;;16.00;99.90;;;;;;5037220;28;20515;-79
2022/05/05 08:40:02;;;;;;;21.83;11.70;;;16.10;99.90;;;;;;5036684;28;20646;-79
2022/05/05 08:42:29;;;;;;;20.73;11.80;;;15.90;99.90;;;;;;5042732;28;20495;-79
2022/05/05 08:44:56;;;;;;;22.60;11.93;;;15.90;99.90;;;;;;5055943;28;20873;-79
2022/05/05 08:47:25;;;;;;;23.30;11.40;;;15.90;99.90;;;;;;5050561;28;20507;-79
2022/05/05 08:49:53;;;;;;;19.77;11.60;;;16.00;99.90;;;;;;5036439;28;20481;-79
2022/05/05 08:52:25;;;;;;;27.43;13.90;;;16.00;99.90;;;;;;5042051;28;20445;-79
2022/05/05 08:54:53;;;;;;;26.43;12.73;;;16.00;99.90;;;;;;5045478;28;20420;-79
2022/05/05 08:57:19;;;;;;;23.43;12.10;;;15.90;99.90;;;;;;5047404;28;20449;-79
2022/05/05 08:59:46;;;;;;;21.57;11.70;;;15.90;99.90;;;;;;5061422;28;20444;-79
2022/05/05 09:02:12;;;;;;;18.60;11.13;;;15.80;99.90;;;;;;5062322;28;20526;-79
2022/05/05 09:04:44;;;;;;;22.73;12.10;;;15.70;99.90;;;;;;5059941;28;20944;-79
2022/05/05 09:07:11;;;;;;;22.77;12.40;;;15.60;99.90;;;;;;5061966;28;20426;-79
2022/05/05 09:09:37;;;;;;;26.00;11.93;;;15.50;99.90;;;;;;5044428;28;20512;-79
2022/05/05 09:12:14;;;;;;;22.87;11.73;;;15.50;99.90;;;;;;5043897;28;20467;-79
2022/05/05 09:14:43;;;;;;;25.33;12.07;;;15.50;99.90;;;;;;5054279;28;20443;-79
2022/05/05 09:17:13;;;;;;;21.67;11.47;;;15.50;99.90;;;;;;5046009;28;20460;-79
2022/05/05 09:19:41;;;;;;;23.77;11.83;;;15.50;99.90;;;;;;5041272;28;20449;-79
2022/05/05 09:22:09;;;;;;;17.83;10.70;;;15.50;99.90;;;;;;5039267;28;20473;-79
2022/05/05 09:24:36;;;;;;;24.70;10.50;;;15.60;99.90;;;;;;5047383;28;20475;-79
2022/05/05 09:27:17;;;;;;;16.23;11.20;;;15.60;99.90;;;;;;5049776;28;20506;-79
2022/05/05 09:29:54;;;;;;;20.90;11.63;;;15.70;99.90;;;;;;5060220;28;20578;-79
2022/05/05 09:32:21;;;;;;;23.90;11.90;;;15.70;99.90;;;;;;5021295;28;20502;-79
2022/05/05 09:34:55;;;;;;;20.47;10.73;;;15.80;99.90;;;;;;5027057;28;20898;-80
2022/05/05 09:37:22;;;;;;;23.53;10.03;;;15.80;99.90;;;;;;5041823;28;20757;-79
2022/05/05 09:39:53;;;;;;;24.40;11.50;;;15.90;99.90;;;;;;5042269;28;20457;-79
2022/05/05 09:42:34;;;;;;;22.80;10.90;;;16.00;99.90;;;;;;5049024;28;20471;-79
2022/05/05 09:45:14;;;;;;;21.40;11.20;;;16.10;99.90;;;;;;5059842;28;20589;-79
2022/05/05 09:47:41;;;;;;;22.77;11.10;;;16.10;99.90;;;;;;5036911;28;20480;-79
2022/05/05 09:50:08;;;;;;;27.57;12.43;;;16.20;99.90;;;;;;5062273;28;20492;-79
2022/05/05 09:58:08;;;;;;;20.90;10.60;;;16.40;99.90;;;;;;5060345;28;20403;-79
2022/05/05 10:00:45;;;;;;;16.90;7.83;;;16.50;99.90;;;;;;5062148;28;20477;-80
2022/05/05 10:06:02;;;;;;;23.30;9.77;;;16.70;99.90;;;;;;5058489;28;20816;-79
2022/05/05 10:08:38;;;;;;;21.93;9.50;;;16.70;99.90;;;;;;5061792;28;20431;-79
2022/05/05 10:11:08;;;;;;;17.20;9.10;;;16.80;99.90;;;;;;5060023;28;20474;-79
2022/05/05 10:13:39;;;;;;;19.60;9.37;;;16.90;99.90;;;;;;5057651;28;20434;-78
2022/05/05 10:16:08;;;;;;;17.50;9.00;;;17.00;99.90;;;;;;5045556;28;20488;-78
2022/05/05 10:18:38;;;;;;;19.63;10.10;;;17.20;99.90;;;;;;5056397;28;20434;-78
2022/05/05 10:21:06;;;;;;;12.77;8.07;;;17.30;99.90;;;;;;5036765;28;20522;-78
2022/05/05 10:23:53;;;;;;;19.40;8.70;;;17.50;99.90;;;;;;5039706;28;20424;-78
2022/05/05 10:26:23;;;;;;;16.40;8.33;;;17.50;99.90;;;;;;5028918;28;20461;-78
2022/05/05 10:28:52;;;;;;;16.80;8.50;;;17.60;99.90;;;;;;5037179;28;20544;-78
2022/05/05 10:31:42;;;;;;;12.90;9.60;;;17.70;99.90;;;;;;5042706;28;20486;-78
2022/05/05 10:34:15;;;;;;;22.10;8.97;;;18.10;99.90;;;;;;5057496;28;20461;-78
2022/05/05 10:36:58;;;;;;;21.43;8.80;;;17.90;99.90;;;;;;5044470;28;20452;-78
2022/05/05 10:39:26;;;;;;;13.70;8.50;;;18.00;99.90;;;;;;5056721;28;20448;-77
2022/05/05 10:42:22;;;;;;;18.50;8.20;;;18.10;99.90;;;;;;5055614;28;20484;-78
2022/05/05 10:45:12;;;;;;;15.60;7.57;;;18.30;99.90;;;;;;5058201;28;20919;-78
2022/05/05 10:48:18;;;;;;;15.93;8.30;;;18.40;99.90;;;;;;5043496;28;20480;-78
2022/05/05 10:50:52;;;;;;;15.40;7.73;;;18.20;99.90;;;;;;5021617;28;20516;-78
2022/05/05 10:53:28;;;;;;;16.83;8.13;;;18.00;99.90;;;;;;5042883;28;20452;-78
2022/05/05 10:55:55;;;;;;;17.00;7.97;;;18.00;99.90;;;;;;5040465;28;20502;-78
2022/05/05 10:59:04;;;;;;;13.83;8.00;;;18.20;99.90;;;;;;5042690;28;20970;-78
2022/05/05 11:02:04;;;;;;;17.23;8.37;;;18.30;99.90;;;;;;5045330;28;20473;-78
2022/05/05 11:04:32;;;;;;;15.80;8.10;;;18.30;99.90;;;;;;5047048;28;20548;-80
2022/05/05 11:07:31;;;;;;;18.47;8.20;;;18.20;99.90;;;;;;5041437;28;20523;-79
2022/05/05 11:10:01;;;;;;;13.47;8.27;;;18.20;99.90;;;;;;5038738;28;20455;-78
2022/05/05 11:12:33;;;;;;;20.97;8.93;;;18.00;99.90;;;;;;5038743;28;20542;-80
2022/05/05 11:23:42;;;;;;;15.57;8.63;;;17.10;99.90;;;;;;5060953;28;20498;-77
2022/05/05 11:26:12;;;;;;;12.07;7.23;;;17.00;99.90;;;;;;5020493;28;20423;-78
2022/05/05 11:28:38;;;;;;;14.80;8.30;;;16.90;99.90;;;;;;5036815;28;20453;-77
2022/05/05 11:31:15;;;;;;;15.00;8.73;;;16.90;99.90;;;;;;5036569;28;20526;-79
2022/05/05 11:33:47;;;;;;;19.13;8.80;;;16.90;99.90;;;;;;5041221;28;20438;-79
2022/05/05 11:36:13;;;;;;;10.70;8.77;;;16.90;99.90;;;;;;5041327;28;20429;-78
2022/05/05 11:38:42;;;;;;;16.83;8.23;;;16.90;99.90;;;;;;5040715;28;20432;-78
2022/05/05 11:41:09;;;;;;;12.60;7.60;;;17.10;99.90;;;;;;5041760;28;21620;-78
2022/05/05 11:46:21;;;;;;;14.13;8.20;;;17.00;99.90;;;;;;5039216;28;20411;-79
2022/05/05 11:48:57;;;;;;;10.67;8.07;;;17.20;99.90;;;;;;5055887;28;20423;-80
2022/05/05 11:51:25;;;;;;;11.30;8.43;;;17.30;99.90;;;;;;5058377;28;20489;-78
2022/05/05 11:54:07;;;;;;;12.37;7.70;;;17.50;99.90;;;;;;5059281;28;20650;-78
2022/05/05 11:56:35;;;;;;;14.80;8.33;;;17.70;99.90;;;;;;5050715;28;20455;-78
2022/05/05 12:02:01;;;;;;;18.10;8.60;;;17.80;99.90;;;;;;5035833;28;20447;-77
2022/05/05 12:04:30;;;;;;;11.50;7.33;;;18.00;99.90;;;;;;5036052;28;21001;-79
2022/05/05 12:06:58;;;;;;;13.57;8.40;;;18.20;99.90;;;;;;5042742;28;20428;-80
2022/05/05 12:09:25;;;;;;;12.63;7.83;;;18.20;99.90;;;;;;5041688;28;20548;-80
2022/05/05 12:11:51;;;;;;;11.70;7.50;;;18.20;99.90;;;;;;5038832;28;20485;-80
2022/05/05 12:14:20;;;;;;;11.67;7.27;;;18.20;99.90;;;;;;5039952;28;20439;-80
2022/05/05 12:16:47;;;;;;;13.97;7.70;;;18.20;99.90;;;;;;5039772;28;20615;-80
2022/05/05 12:19:15;;;;;;;12.37;6.70;;;18.10;99.90;;;;;;5039184;28;20420;-79
2022/05/05 12:21:54;;;;;;;14.20;8.60;;;18.00;99.90;;;;;;5035992;28;20495;-80
2022/05/05 12:24:23;;;;;;;11.37;7.30;;;18.00;99.90;;;;;;5035681;28;20439;-81
2022/05/05 12:26:51;;;;;;;15.03;7.77;;;18.00;99.90;;;;;;5040509;28;20429;-81
2022/05/05 12:29:20;;;;;;;18.30;7.40;;;18.10;99.90;;;;;;5041029;28;20427;-80
2022/05/05 12:31:55;;;;;;;15.43;7.13;;;18.50;99.90;;;;;;5039714;28;20896;-79
2022/05/05 12:34:25;;;;;;;12.70;7.00;;;19.30;99.90;;;;;;5039469;28;20511;-79
2022/05/05 12:37:09;;;;;;;9.70;7.10;;;20.30;99.90;;;;;;5043576;28;20461;-80
2022/05/05 12:39:52;;;;;;;11.17;8.00;;;21.10;99.90;;;;;;5041514;28;20868;-80
2022/05/05 12:42:20;;;;;;;11.90;7.97;;;21.10;99.90;;;;;;5042124;28;20446;-80
2022/05/05 12:44:49;;;;;;;14.60;7.23;;;20.90;99.90;;;;;;5056056;28;20444;-80
2022/05/05 12:47:21;;;;;;;14.07;7.20;;;21.10;99.90;;;;;;5042842;28;20851;-80
2022/05/05 12:49:47;;;;;;;9.57;7.13;;;21.50;99.90;;;;;;5035752;28;20473;-81
2022/05/05 13:00:24;;;;;;;10.90;6.40;;;22.60;99.90;;;;;;5038940;28;20440;-80
2022/05/05 13:02:52;;;;;;;14.90;7.20;;;22.50;99.90;;;;;;5038581;28;20449;-80
2022/05/05 13:05:18;;;;;;;11.90;6.33;;;22.50;99.90;;;;;;5039550;28;20584;-80
2022/05/05 13:07:46;;;;;;;10.97;6.77;;;22.00;99.90;;;;;;5037178;28;20437;-80
2022/05/05 13:10:13;;;;;;;12.87;6.80;;;21.90;99.90;;;;;;5037515;28;20519;-79
2022/05/05 13:12:40;;;;;;;14.93;7.00;;;21.70;99.90;;;;;;5038273;28;20462;-79
2022/05/05 13:15:08;;;;;;;12.70;7.27;;;21.30;99.90;;;;;;5037293;28;20461;-79
2022/05/05 13:17:34;;;;;;;16.00;7.77;;;21.10;99.90;;;;;;5043265;28;20843;-80
2022/05/05 13:20:01;;;;;;;12.37;7.13;;;21.00;99.90;;;;;;5037439;28;20453;-80
2022/05/05 13:22:29;;;;;;;11.10;7.73;;;21.00;99.90;;;;;;5039941;28;20461;-80
2022/05/05 13:24:57;;;;;;;12.37;6.50;;;20.80;99.90;;;;;;5045698;28;20999;-80
2022/05/05 13:27:24;;;;;;;12.30;6.27;;;20.70;99.90;;;;;;5036278;28;20461;-80